Lenhartsville, Pennsylvania
Current Conditions -  °F | °C
As of 2:54 AM on Saturday 20 Dec 2014 (Local Time) from KRDG Reporting Station
Overcast Overcast  
Wind Chill: 26°   Ceiling: 3100
Heat Index: 33°   Visibility: 10mi
Dew Point: 20°   Wind: 8mph
Humidity: 59%   Direction: 360°N
Pressure: 30.22"   Gusts: NA
Location:  40.57°N, 75.89°W
Report Text: KRDG 200754Z AUTO 36007KT 10SM OVC031 01/M07 A3022 RMK AO2 SLP240 T00061067
Loading
Personal Weather Stations






























Interactive Weather Map New forecast layout! Learn more

10-Day Weather Forecast

Advertisements
Track Severe Weather on mobile